Como, MS (38619)

6:22 PM CDT on July 11, 2014 (GMT -0500)
BHQ (KMSCOMO2) Elev 367 ft | 34.52 °N, 89.94 °W | Change Station

Current weather conditions updated 10 minutes ago

Clear
Clear
85.5 °F
Feels Like 93 °F
N
0.0
Wind Variable Wind from East

Tomorrow is forecast to be Warmer than today.

Today
High -- | Low -- °F
--% Chance of Precip.
Yesterday
High -- | Low -- °F
Precip. -- in
5:55 AM 8:14 PM
Full, 100% visible
Pressure 30.14 in
Visibility 10.0 miles
Clouds Clear
Heat Index 93 °F
Dew Point 74 °F
Humidity 69%
Rainfall 0.00 in
Snow Depth Not available.
UV 2 out of 12
Pollen 3.20 out of 12
Air Quality Not available.
Flu Activity No Activity
METAR KUOX 112255Z AUTO 00000KT 10SM CLR 28/21 A3014 RMK AO2

More Conditions Fewer Conditions

Pressure 30.14 in
Visibility 10.0 miles
Clouds Clear
Heat Index 93 °F
Dew Point 74 °F
Humidity 69%
Rainfall 0.00 in
Snow Depth Not available.
UV 2 out of 12
Pollen 3.20 out of 12
Air Quality Not available.
Flu Activity No Activity
METAR KUOX 112255Z AUTO 00000KT 10SM CLR 28/21 A3014 RMK AO2

More Conditions Fewer Conditions

10-Day Weather Forecast

Almanac

Astronomy

Jul. 11, 2014 Rise Set
Actual Time 5:55 AM CDT 8:14 PM CDT
Civil Twilight 5:26 AM CDT 8:43 PM CDT
Nautical Twilight 4:51 AM CDT 9:18 PM CDT
Astronomical Twilight 4:12 AM CDT 9:57 PM CDT
Moon 7:27 PM CDT 5:05 AM CDT
Length of Visible Light 15h 16m
Length of Day
14h 18m
Tomorrow will be 0m 57s shorter.
Full, 100% of the Moon is Illuminated
Today
Full
Jul 12
Full
Jul 18
Last Quarter
Jul 26
New
Aug 3
First Quarter

Today's Extremes

State Highs State Lows

Community

WunderPhotos

Upload Photos

1,732,587 photos uploaded!

WunderBlogs® & News

Nearby

Snow Depth

Station Depth Elevation
No new snow has been reported.

Earthquake Activity

City Distance Mag. Time & Date
No recent earthquake activity has been reported nearby.
Minimum magnitude displayed is 2.5.

Coastal Water Temperatures

Place Temperature
No Stations Reporting

Nearby Weather Stations

Station Location Temp. Heat Index Dew Point Humidity Wind Precip. Elev Updated Type
BHQ, Como, MS 85.5 °F 93 °F 74 °F 69% East  at  0.0 mph - / hr 367 ft 6:12 PM CDT Normal
Bett, Coldwater, MS 80.2 °F 86 °F 76 °F 88% SW  at  0.0 mph 0.00 in / hr 367 ft 6:21 PM CDT Normal
MesoWest GOODWIN CK PASTURE , Pope, MS 79 °F 83 °F 76 °F 91% WSW  at  3 mph 0.29 in / hr 319 ft 5:00 PM CDT MADIS
Northwood Hills, Hernando, MS 87.6 °F 94 °F 72 °F 59% South  at  0.0 mph 0.00 in / hr 370 ft 6:22 PM CDT Rapid Fire
Parkway Baptist Church East, Hernando, MS 82.7 °F 88 °F 72 °F 71% ESE  at  2.0 mph 0.00 in / hr 377 ft 6:22 PM CDT Normal
Charston Rowe, Hernando, MS 81.5 °F 88 °F 76 °F 83% ESE  at  0.0 mph 0.00 in / hr 358 ft 6:21 PM CDT Rapid Fire

Show More Stations Show Fewer Stations